sensor_id;sensor_type;location;lat;lon;timestamp;temperature;humidity
11704;DHT22;5908;51.354;7.458;2023-05-13T00:00:35;11.20;99.90
11704;DHT22;5908;51.354;7.458;2023-05-13T00:03:02;11.20;99.90
11704;DHT22;5908;51.354;7.458;2023-05-13T00:05:29;11.20;99.90
11704;DHT22;5908;51.354;7.458;2023-05-13T00:07:57;11.20;99.90
11704;DHT22;5908;51.354;7.458;2023-05-13T00:10:26;11.10;99.90
11704;DHT22;5908;51.354;7.458;2023-05-13T00:12:53;11.20;99.90
11704;DHT22;5908;51.354;7.458;2023-05-13T00:15:20;11.20;99.90
11704;DHT22;5908;51.354;7.458;2023-05-13T00:17:46;11.10;99.90
11704;DHT22;5908;51.354;7.458;2023-05-13T00:20:13;11.10;99.90
11704;DHT22;5908;51.354;7.458;2023-05-13T00:22:40;11.10;99.90
11704;DHT22;5908;51.354;7.458;2023-05-13T00:25:09;11.10;99.90
11704;DHT22;5908;51.354;7.458;2023-05-13T00:27:36;11.10;99.90
11704;DHT22;5908;51.354;7.458;2023-05-13T00:30:03;11.10;99.90
11704;DHT22;5908;51.354;7.458;2023-05-13T00:32:30;11.00;99.90
11704;DHT22;5908;51.354;7.458;2023-05-13T00:34:57;11.00;99.90
11704;DHT22;5908;51.354;7.458;2023-05-13T00:37:24;10.90;99.90
11704;DHT22;5908;51.354;7.458;2023-05-13T00:39:51;10.90;99.90
11704;DHT22;5908;51.354;7.458;2023-05-13T00:42:19;10.90;99.90
11704;DHT22;5908;51.354;7.458;2023-05-13T00:44:46;10.80;99.90
11704;DHT22;5908;51.354;7.458;2023-05-13T00:47:13;10.80;99.90
11704;DHT22;5908;51.354;7.458;2023-05-13T00:49:40;10.70;99.90
11704;DHT22;5908;51.354;7.458;2023-05-13T00:52:07;10.70;99.90
11704;DHT22;5908;51.354;7.458;2023-05-13T00:54:34;10.70;99.90
11704;DHT22;5908;51.354;7.458;2023-05-13T00:57:01;10.60;99.90
11704;DHT22;5908;51.354;7.458;2023-05-13T00:59:30;10.60;99.90
11704;DHT22;5908;51.354;7.458;2023-05-13T01:02:02;10.60;99.90
11704;DHT22;5908;51.354;7.458;2023-05-13T01:04:39;10.60;99.90
11704;DHT22;5908;51.354;7.458;2023-05-13T01:07:13;10.60;99.90
11704;DHT22;5908;51.354;7.458;2023-05-13T01:09:50;10.60;99.90
11704;DHT22;5908;51.354;7.458;2023-05-13T01:12:26;10.60;99.90
11704;DHT22;5908;51.354;7.458;2023-05-13T01:15:01;10.60;99.90
11704;DHT22;5908;51.354;7.458;2023-05-13T01:17:31;10.50;99.90
11704;DHT22;5908;51.354;7.458;2023-05-13T01:20:02;10.50;99.90
11704;DHT22;5908;51.354;7.458;2023-05-13T01:22:31;10.50;99.90
11704;DHT22;5908;51.354;7.458;2023-05-13T01:24:58;10.50;99.90
11704;DHT22;5908;51.354;7.458;2023-05-13T01:27:25;10.40;99.90
11704;DHT22;5908;51.354;7.458;2023-05-13T01:29:52;10.40;99.90
11704;DHT22;5908;51.354;7.458;2023-05-13T01:32:20;10.40;99.90
11704;DHT22;5908;51.354;7.458;2023-05-13T01:34:48;10.40;99.90
11704;DHT22;5908;51.354;7.458;2023-05-13T01:37:16;10.40;99.90
11704;DHT22;5908;51.354;7.458;2023-05-13T01:39:44;10.30;99.90
11704;DHT22;5908;51.354;7.458;2023-05-13T01:42:12;10.30;99.90
11704;DHT22;5908;51.354;7.458;2023-05-13T01:44:38;10.20;99.90
11704;DHT22;5908;51.354;7.458;2023-05-13T01:47:05;10.20;99.90
11704;DHT22;5908;51.354;7.458;2023-05-13T01:49:32;10.20;99.90
11704;DHT22;5908;51.354;7.458;2023-05-13T01:51:59;10.20;99.90
11704;DHT22;5908;51.354;7.458;2023-05-13T01:54:25;10.10;99.90
11704;DHT22;5908;51.354;7.458;2023-05-13T01:56:54;10.10;99.90
11704;DHT22;5908;51.354;7.458;2023-05-13T01:59:20;10.10;99.90
11704;DHT22;5908;51.354;7.458;2023-05-13T02:01:47;10.10;99.90
11704;DHT22;5908;51.354;7.458;2023-05-13T02:04:14;10.00;99.90
11704;DHT22;5908;51.354;7.458;2023-05-13T02:06:41;10.00;99.90
11704;DHT22;5908;51.354;7.458;2023-05-13T02:09:07;10.00;99.90
11704;DHT22;5908;51.354;7.458;2023-05-13T02:11:34;10.00;99.90
11704;DHT22;5908;51.354;7.458;2023-05-13T02:14:03;9.90;99.90
11704;DHT22;5908;51.354;7.458;2023-05-13T02:16:30;9.90;99.90
11704;DHT22;5908;51.354;7.458;2023-05-13T02:18:57;9.90;99.90
11704;DHT22;5908;51.354;7.458;2023-05-13T02:21:24;9.90;99.90
11704;DHT22;5908;51.354;7.458;2023-05-13T02:23:50;9.90;99.90
11704;DHT22;5908;51.354;7.458;2023-05-13T02:26:17;9.90;99.90
11704;DHT22;5908;51.354;7.458;2023-05-13T02:28:46;9.80;99.90
11704;DHT22;5908;51.354;7.458;2023-05-13T02:31:14;9.80;99.90
11704;DHT22;5908;51.354;7.458;2023-05-13T02:33:41;9.70;99.90
11704;DHT22;5908;51.354;7.458;2023-05-13T02:36:08;9.70;99.90
11704;DHT22;5908;51.354;7.458;2023-05-13T02:38:35;9.80;99.90
11704;DHT22;5908;51.354;7.458;2023-05-13T02:41:02;9.70;99.90
11704;DHT22;5908;51.354;7.458;2023-05-13T02:43:28;9.70;99.90
11704;DHT22;5908;51.354;7.458;2023-05-13T02:45:55;9.60;99.90
11704;DHT22;5908;51.354;7.458;2023-05-13T02:48:23;9.60;99.90
11704;DHT22;5908;51.354;7.458;2023-05-13T02:50:50;9.60;99.90
11704;DHT22;5908;51.354;7.458;2023-05-13T02:53:18;9.50;99.90
11704;DHT22;5908;51.354;7.458;2023-05-13T02:55:45;9.50;99.90
11704;DHT22;5908;51.354;7.458;2023-05-13T02:58:12;9.50;99.90
11704;DHT22;5908;51.354;7.458;2023-05-13T03:00:39;9.50;99.90
11704;DHT22;5908;51.354;7.458;2023-05-13T03:03:05;9.50;99.90
11704;DHT22;5908;51.354;7.458;2023-05-13T03:05:33;9.50;99.90
11704;DHT22;5908;51.354;7.458;2023-05-13T03:08:00;9.40;99.90
11704;DHT22;5908;51.354;7.458;2023-05-13T03:10:27;9.40;99.90
11704;DHT22;5908;51.354;7.458;2023-05-13T03:12:54;9.40;99.90
11704;DHT22;5908;51.354;7.458;2023-05-13T03:15:21;9.40;99.90
11704;DHT22;5908;51.354;7.458;2023-05-13T03:17:48;9.30;99.90
11704;DHT22;5908;51.354;7.458;2023-05-13T03:20:15;9.40;99.90
11704;DHT22;5908;51.354;7.458;2023-05-13T03:22:43;9.30;99.90
11704;DHT22;5908;51.354;7.458;2023-05-13T03:25:10;9.30;99.90
11704;DHT22;5908;51.354;7.458;2023-05-13T03:27:38;9.30;99.90
11704;DHT22;5908;51.354;7.458;2023-05-13T03:30:06;9.40;99.90
11704;DHT22;5908;51.354;7.458;2023-05-13T03:32:33;9.40;99.90
11704;DHT22;5908;51.354;7.458;2023-05-13T03:35:01;9.30;99.90
11704;DHT22;5908;51.354;7.458;2023-05-13T03:37:29;9.30;99.90
11704;DHT22;5908;51.354;7.458;2023-05-13T03:39:57;9.30;99.90
11704;DHT22;5908;51.354;7.458;2023-05-13T03:42:26;9.30;99.90
11704;DHT22;5908;51.354;7.458;2023-05-13T03:44:55;9.30;99.90
11704;DHT22;5908;51.354;7.458;2023-05-13T03:47:22;9.30;99.90
11704;DHT22;5908;51.354;7.458;2023-05-13T03:49:49;9.30;99.90
11704;DHT22;5908;51.354;7.458;2023-05-13T03:52:16;9.30;99.90
11704;DHT22;5908;51.354;7.458;2023-05-13T03:54:43;9.30;99.90
11704;DHT22;5908;51.354;7.458;2023-05-13T03:57:11;9.20;99.90
11704;DHT22;5908;51.354;7.458;2023-05-13T03:59:38;9.20;99.90
11704;DHT22;5908;51.354;7.458;2023-05-13T04:02:05;9.20;99.90
11704;DHT22;5908;51.354;7.458;2023-05-13T04:04:31;9.30;99.90
11704;DHT22;5908;51.354;7.458;2023-05-13T04:06:58;9.30;99.90
11704;DHT22;5908;51.354;7.458;2023-05-13T04:09:25;9.30;99.90
11704;DHT22;5908;51.354;7.458;2023-05-13T04:11:52;9.30;99.90
11704;DHT22;5908;51.354;7.458;2023-05-13T04:14:20;9.40;99.90
11704;DHT22;5908;51.354;7.458;2023-05-13T04:16:47;9.40;99.90
11704;DHT22;5908;51.354;7.458;2023-05-13T04:19:14;9.40;99.90
11704;DHT22;5908;51.354;7.458;2023-05-13T04:21:40;9.50;99.90
11704;DHT22;5908;51.354;7.458;2023-05-13T04:24:07;9.50;99.90
11704;DHT22;5908;51.354;7.458;2023-05-13T04:26:34;9.60;99.90
11704;DHT22;5908;51.354;7.458;2023-05-13T04:29:03;10.30;99.90
11704;DHT22;5908;51.354;7.458;2023-05-13T04:31:31;11.30;99.90
11704;DHT22;5908;51.354;7.458;2023-05-13T04:33:58;11.60;99.90
11704;DHT22;5908;51.354;7.458;2023-05-13T04:36:24;12.20;99.90
11704;DHT22;5908;51.354;7.458;2023-05-13T04:38:51;12.90;99.90
11704;DHT22;5908;51.354;7.458;2023-05-13T04:41:19;12.70;99.90
11704;DHT22;5908;51.354;7.458;2023-05-13T04:43:46;11.90;99.90
11704;DHT22;5908;51.354;7.458;2023-05-13T04:46:13;11.30;99.90
11704;DHT22;5908;51.354;7.458;2023-05-13T04:48:41;11.00;99.90
11704;DHT22;5908;51.354;7.458;2023-05-13T04:51:12;10.80;99.90
11704;DHT22;5908;51.354;7.458;2023-05-13T04:53:39;10.70;99.90
11704;DHT22;5908;51.354;7.458;2023-05-13T04:56:06;10.60;99.90
11704;DHT22;5908;51.354;7.458;2023-05-13T04:58:33;10.60;99.90
11704;DHT22;5908;51.354;7.458;2023-05-13T05:00:59;10.70;99.90
11704;DHT22;5908;51.354;7.458;2023-05-13T05:03:26;10.60;99.90
11704;DHT22;5908;51.354;7.458;2023-05-13T05:05:54;10.60;99.90
11704;DHT22;5908;51.354;7.458;2023-05-13T05:08:21;10.60;99.90
11704;DHT22;5908;51.354;7.458;2023-05-13T05:10:48;10.70;99.90
11704;DHT22;5908;51.354;7.458;2023-05-13T05:13:14;10.80;99.90
11704;DHT22;5908;51.354;7.458;2023-05-13T05:15:42;10.80;99.90
11704;DHT22;5908;51.354;7.458;2023-05-13T05:18:08;10.90;99.90
11704;DHT22;5908;51.354;7.458;2023-05-13T05:20:36;11.00;99.90
11704;DHT22;5908;51.354;7.458;2023-05-13T05:23:04;11.10;99.90
11704;DHT22;5908;51.354;7.458;2023-05-13T05:25:31;11.10;99.90
11704;DHT22;5908;51.354;7.458;2023-05-13T05:27:58;11.10;99.90
11704;DHT22;5908;51.354;7.458;2023-05-13T05:30:25;11.10;99.90
11704;DHT22;5908;51.354;7.458;2023-05-13T05:32:52;11.10;99.90
11704;DHT22;5908;51.354;7.458;2023-05-13T05:35:18;11.10;99.90
11704;DHT22;5908;51.354;7.458;2023-05-13T05:37:45;11.00;99.90
11704;DHT22;5908;51.354;7.458;2023-05-13T05:40:14;11.00;99.90
11704;DHT22;5908;51.354;7.458;2023-05-13T05:42:40;11.00;99.90
11704;DHT22;5908;51.354;7.458;2023-05-13T05:45:08;11.00;99.90
11704;DHT22;5908;51.354;7.458;2023-05-13T05:47:35;11.10;99.90
11704;DHT22;5908;51.354;7.458;2023-05-13T05:50:01;11.10;99.90
11704;DHT22;5908;51.354;7.458;2023-05-13T05:52:28;11.10;99.90
11704;DHT22;5908;51.354;7.458;2023-05-13T05:54:55;11.00;99.90
11704;DHT22;5908;51.354;7.458;2023-05-13T05:57:23;11.00;99.90
11704;DHT22;5908;51.354;7.458;2023-05-13T05:59:50;11.00;99.90
11704;DHT22;5908;51.354;7.458;2023-05-13T06:02:17;11.00;99.90
11704;DHT22;5908;51.354;7.458;2023-05-13T06:04:44;11.00;99.90
11704;DHT22;5908;51.354;7.458;2023-05-13T06:07:10;11.10;99.90
11704;DHT22;5908;51.354;7.458;2023-05-13T06:09:37;11.20;99.90
11704;DHT22;5908;51.354;7.458;2023-05-13T06:12:05;11.30;99.90
11704;DHT22;5908;51.354;7.458;2023-05-13T06:14:34;11.50;99.90
11704;DHT22;5908;51.354;7.458;2023-05-13T06:17:01;11.70;99.90
11704;DHT22;5908;51.354;7.458;2023-05-13T06:19:27;11.80;99.90
11704;DHT22;5908;51.354;7.458;2023-05-13T06:21:54;11.90;99.90
11704;DHT22;5908;51.354;7.458;2023-05-13T06:24:21;12.00;99.90
11704;DHT22;5908;51.354;7.458;2023-05-13T06:26:48;12.00;99.90
11704;DHT22;5908;51.354;7.458;2023-05-13T06:29:15;12.10;99.90
11704;DHT22;5908;51.354;7.458;2023-05-13T06:31:43;12.00;99.90
11704;DHT22;5908;51.354;7.458;2023-05-13T06:34:10;11.60;99.90
11704;DHT22;5908;51.354;7.458;2023-05-13T06:36:41;11.30;99.90
11704;DHT22;5908;51.354;7.458;2023-05-13T06:39:08;11.50;99.90
11704;DHT22;5908;51.354;7.458;2023-05-13T06:41:35;11.70;99.90
11704;DHT22;5908;51.354;7.458;2023-05-13T06:44:02;11.90;99.90
11704;DHT22;5908;51.354;7.458;2023-05-13T06:46:29;12.10;99.90
11704;DHT22;5908;51.354;7.458;2023-05-13T06:48:57;12.50;99.90
11704;DHT22;5908;51.354;7.458;2023-05-13T06:51:25;12.80;99.90
11704;DHT22;5908;51.354;7.458;2023-05-13T06:53:53;12.80;99.90
11704;DHT22;5908;51.354;7.458;2023-05-13T06:56:20;12.80;99.90
11704;DHT22;5908;51.354;7.458;2023-05-13T06:58:47;13.00;99.90
11704;DHT22;5908;51.354;7.458;2023-05-13T07:01:14;13.10;99.90
11704;DHT22;5908;51.354;7.458;2023-05-13T07:03:41;13.20;99.90
11704;DHT22;5908;51.354;7.458;2023-05-13T07:06:09;13.30;99.90
11704;DHT22;5908;51.354;7.458;2023-05-13T07:08:36;13.50;99.90
11704;DHT22;5908;51.354;7.458;2023-05-13T07:11:03;13.50;99.90
11704;DHT22;5908;51.354;7.458;2023-05-13T07:13:30;13.70;99.90
11704;DHT22;5908;51.354;7.458;2023-05-13T07:15:59;13.90;99.90
11704;DHT22;5908;51.354;7.458;2023-05-13T07:18:26;14.00;99.90
11704;DHT22;5908;51.354;7.458;2023-05-13T07:20:53;14.10;99.90
11704;DHT22;5908;51.354;7.458;2023-05-13T07:23:22;14.00;99.90
11704;DHT22;5908;51.354;7.458;2023-05-13T07:25:49;14.10;99.90
11704;DHT22;5908;51.354;7.458;2023-05-13T07:28:17;14.20;99.90
11704;DHT22;5908;51.354;7.458;2023-05-13T07:30:44;14.20;99.90
11704;DHT22;5908;51.354;7.458;2023-05-13T07:33:11;14.20;99.90
11704;DHT22;5908;51.354;7.458;2023-05-13T07:35:38;14.10;99.90
11704;DHT22;5908;51.354;7.458;2023-05-13T07:38:08;13.90;99.90
11704;DHT22;5908;51.354;7.458;2023-05-13T07:40:37;13.90;99.90
11704;DHT22;5908;51.354;7.458;2023-05-13T07:43:04;13.90;99.90
11704;DHT22;5908;51.354;7.458;2023-05-13T07:45:31;14.00;99.90
11704;DHT22;5908;51.354;7.458;2023-05-13T07:47:58;14.00;99.90
11704;DHT22;5908;51.354;7.458;2023-05-13T07:50:25;13.90;99.90
11704;DHT22;5908;51.354;7.458;2023-05-13T07:52:52;13.90;99.90
11704;DHT22;5908;51.354;7.458;2023-05-13T07:55:19;13.80;99.90
11704;DHT22;5908;51.354;7.458;2023-05-13T07:57:48;13.90;99.90
11704;DHT22;5908;51.354;7.458;2023-05-13T08:00:16;13.90;99.90
11704;DHT22;5908;51.354;7.458;2023-05-13T08:02:43;13.90;99.90
11704;DHT22;5908;51.354;7.458;2023-05-13T08:05:10;13.90;99.90
11704;DHT22;5908;51.354;7.458;2023-05-13T08:07:37;14.00;99.90
11704;DHT22;5908;51.354;7.458;2023-05-13T08:10:05;14.20;99.90
11704;DHT22;5908;51.354;7.458;2023-05-13T08:12:32;14.30;99.90
11704;DHT22;5908;51.354;7.458;2023-05-13T08:15:01;14.40;99.90
11704;DHT22;5908;51.354;7.458;2023-05-13T08:17:29;14.50;99.90
11704;DHT22;5908;51.354;7.458;2023-05-13T08:19:55;14.60;99.90
11704;DHT22;5908;51.354;7.458;2023-05-13T08:22:22;14.70;99.90
11704;DHT22;5908;51.354;7.458;2023-05-13T08:24:49;14.80;99.90
11704;DHT22;5908;51.354;7.458;2023-05-13T08:27:16;14.80;99.90
11704;DHT22;5908;51.354;7.458;2023-05-13T08:29:43;14.90;99.90
11704;DHT22;5908;51.354;7.458;2023-05-13T08:32:11;14.90;99.90
11704;DHT22;5908;51.354;7.458;2023-05-13T08:34:38;15.00;99.90
11704;DHT22;5908;51.354;7.458;2023-05-13T08:37:05;15.20;99.90
11704;DHT22;5908;51.354;7.458;2023-05-13T08:39:32;15.40;99.90
11704;DHT22;5908;51.354;7.458;2023-05-13T08:42:02;15.80;99.90
11704;DHT22;5908;51.354;7.458;2023-05-13T08:44:31;16.10;99.90
11704;DHT22;5908;51.354;7.458;2023-05-13T08:47:03;16.30;99.90
11704;DHT22;5908;51.354;7.458;2023-05-13T08:49:33;16.40;99.90
11704;DHT22;5908;51.354;7.458;2023-05-13T08:52:00;16.50;99.90
11704;DHT22;5908;51.354;7.458;2023-05-13T08:54:28;16.40;99.90
11704;DHT22;5908;51.354;7.458;2023-05-13T08:56:55;16.30;99.90
11704;DHT22;5908;51.354;7.458;2023-05-13T08:59:22;16.30;99.90
11704;DHT22;5908;51.354;7.458;2023-05-13T09:01:49;16.30;99.90
11704;DHT22;5908;51.354;7.458;2023-05-13T09:04:18;16.20;99.90
11704;DHT22;5908;51.354;7.458;2023-05-13T09:06:47;16.20;99.90
11704;DHT22;5908;51.354;7.458;2023-05-13T09:09:14;16.20;99.90
11704;DHT22;5908;51.354;7.458;2023-05-13T09:11:41;16.30;99.90
11704;DHT22;5908;51.354;7.458;2023-05-13T09:14:08;16.30;99.90
11704;DHT22;5908;51.354;7.458;2023-05-13T09:16:36;16.50;99.90
11704;DHT22;5908;51.354;7.458;2023-05-13T09:19:05;16.60;99.90
11704;DHT22;5908;51.354;7.458;2023-05-13T09:21:33;16.90;99.90
11704;DHT22;5908;51.354;7.458;2023-05-13T09:24:04;17.00;99.90
11704;DHT22;5908;51.354;7.458;2023-05-13T09:26:33;17.20;99.90
11704;DHT22;5908;51.354;7.458;2023-05-13T09:29:20;17.30;99.90
11704;DHT22;5908;51.354;7.458;2023-05-13T09:31:49;17.50;99.90
11704;DHT22;5908;51.354;7.458;2023-05-13T09:34:24;17.60;99.90
11704;DHT22;5908;51.354;7.458;2023-05-13T09:37:00;17.70;99.90
11704;DHT22;5908;51.354;7.458;2023-05-13T09:39:29;17.90;99.90
11704;DHT22;5908;51.354;7.458;2023-05-13T09:41:56;17.90;99.90
11704;DHT22;5908;51.354;7.458;2023-05-13T09:44:23;18.10;99.90
11704;DHT22;5908;51.354;7.458;2023-05-13T09:46:50;18.20;99.90
11704;DHT22;5908;51.354;7.458;2023-05-13T09:49:21;18.30;99.50
11704;DHT22;5908;51.354;7.458;2023-05-13T09:51:48;18.30;99.90
11704;DHT22;5908;51.354;7.458;2023-05-13T09:54:15;18.40;99.10
11704;DHT22;5908;51.354;7.458;2023-05-13T09:56:43;18.50;98.30
11704;DHT22;5908;51.354;7.458;2023-05-13T09:59:10;18.50;98.80
11704;DHT22;5908;51.354;7.458;2023-05-13T10:01:37;18.60;98.80
11704;DHT22;5908;51.354;7.458;2023-05-13T10:04:04;18.70;98.00
11704;DHT22;5908;51.354;7.458;2023-05-13T10:06:34;18.70;98.30
11704;DHT22;5908;51.354;7.458;2023-05-13T10:09:02;18.90;96.60
11704;DHT22;5908;51.354;7.458;2023-05-13T10:11:32;19.00;94.00
11704;DHT22;5908;51.354;7.458;2023-05-13T10:14:05;19.20;92.30
11704;DHT22;5908;51.354;7.458;2023-05-13T10:16:32;19.30;91.60
11704;DHT22;5908;51.354;7.458;2023-05-13T10:18:59;19.30;91.70
11704;DHT22;5908;51.354;7.458;2023-05-13T10:21:27;19.30;91.70
11704;DHT22;5908;51.354;7.458;2023-05-13T10:23:55;19.50;90.80
11704;DHT22;5908;51.354;7.458;2023-05-13T10:26:22;19.60;87.10
11704;DHT22;5908;51.354;7.458;2023-05-13T10:28:50;19.60;86.90
11704;DHT22;5908;51.354;7.458;2023-05-13T10:31:18;19.70;87.80
11704;DHT22;5908;51.354;7.458;2023-05-13T10:33:45;19.80;85.00
11704;DHT22;5908;51.354;7.458;2023-05-13T10:36:22;19.80;86.50
11704;DHT22;5908;51.354;7.458;2023-05-13T10:39:08;19.80;86.50
11704;DHT22;5908;51.354;7.458;2023-05-13T10:42:16;19.90;84.00
11704;DHT22;5908;51.354;7.458;2023-05-13T10:44:45;20.00;84.90
11704;DHT22;5908;51.354;7.458;2023-05-13T10:47:16;19.90;84.80
11704;DHT22;5908;51.354;7.458;2023-05-13T10:49:49;20.10;83.30
11704;DHT22;5908;51.354;7.458;2023-05-13T10:52:16;20.20;84.10
11704;DHT22;5908;51.354;7.458;2023-05-13T10:54:43;20.10;84.10
11704;DHT22;5908;51.354;7.458;2023-05-13T10:57:26;20.20;82.50
11704;DHT22;5908;51.354;7.458;2023-05-13T11:00:13;20.30;82.90
11704;DHT22;5908;51.354;7.458;2023-05-13T11:02:42;20.40;84.00
11704;DHT22;5908;51.354;7.458;2023-05-13T11:05:12;20.40;85.80
11704;DHT22;5908;51.354;7.458;2023-05-13T11:07:53;20.60;82.60
11704;DHT22;5908;51.354;7.458;2023-05-13T11:10:24;20.60;85.00
11704;DHT22;5908;51.354;7.458;2023-05-13T11:13:08;20.60;85.40
11704;DHT22;5908;51.354;7.458;2023-05-13T11:15:48;20.60;81.80
11704;DHT22;5908;51.354;7.458;2023-05-13T11:18:17;20.80;82.30
11704;DHT22;5908;51.354;7.458;2023-05-13T11:20:45;20.90;83.10
11704;DHT22;5908;51.354;7.458;2023-05-13T11:23:16;20.90;81.00
11704;DHT22;5908;51.354;7.458;2023-05-13T11:25:43;21.00;80.40
11704;DHT22;5908;51.354;7.458;2023-05-13T11:28:14;21.00;81.40
11704;DHT22;5908;51.354;7.458;2023-05-13T11:30:52;21.00;79.00
11704;DHT22;5908;51.354;7.458;2023-05-13T11:33:20;21.20;77.10
11704;DHT22;5908;51.354;7.458;2023-05-13T11:35:52;21.20;74.20
11704;DHT22;5908;51.354;7.458;2023-05-13T11:38:22;21.10;76.10
11704;DHT22;5908;51.354;7.458;2023-05-13T11:40:50;21.30;76.40
11704;DHT22;5908;51.354;7.458;2023-05-13T11:43:19;21.30;75.10
11704;DHT22;5908;51.354;7.458;2023-05-13T11:45:46;21.30;75.10
11704;DHT22;5908;51.354;7.458;2023-05-13T11:48:17;21.40;72.30
11704;DHT22;5908;51.354;7.458;2023-05-13T11:50:46;21.40;73.40
11704;DHT22;5908;51.354;7.458;2023-05-13T11:53:18;21.40;70.60
11704;DHT22;5908;51.354;7.458;2023-05-13T11:55:46;21.50;72.30
11704;DHT22;5908;51.354;7.458;2023-05-13T11:58:13;21.60;70.70
11704;DHT22;5908;51.354;7.458;2023-05-13T12:00:40;21.60;71.50
11704;DHT22;5908;51.354;7.458;2023-05-13T12:03:09;21.70;70.90
11704;DHT22;5908;51.354;7.458;2023-05-13T12:05:36;21.80;71.20
11704;DHT22;5908;51.354;7.458;2023-05-13T12:08:06;22.00;71.00
11704;DHT22;5908;51.354;7.458;2023-05-13T12:10:34;22.00;72.20
11704;DHT22;5908;51.354;7.458;2023-05-13T12:13:01;22.00;72.50
11704;DHT22;5908;51.354;7.458;2023-05-13T12:15:28;22.30;70.30
11704;DHT22;5908;51.354;7.458;2023-05-13T12:17:55;22.40;70.60
11704;DHT22;5908;51.354;7.458;2023-05-13T12:20:23;22.50;67.80
11704;DHT22;5908;51.354;7.458;2023-05-13T12:22:52;22.30;70.10
11704;DHT22;5908;51.354;7.458;2023-05-13T12:25:43;22.50;69.30
11704;DHT22;5908;51.354;7.458;2023-05-13T12:28:12;22.60;69.50
11704;DHT22;5908;51.354;7.458;2023-05-13T12:30:43;22.70;68.70
11704;DHT22;5908;51.354;7.458;2023-05-13T12:33:14;22.80;65.90
11704;DHT22;5908;51.354;7.458;2023-05-13T12:35:41;22.80;64.00
11704;DHT22;5908;51.354;7.458;2023-05-13T12:38:13;22.80;65.60
11704;DHT22;5908;51.354;7.458;2023-05-13T12:40:42;22.70;64.10
11704;DHT22;5908;51.354;7.458;2023-05-13T12:43:10;22.70;65.10
11704;DHT22;5908;51.354;7.458;2023-05-13T12:45:41;22.90;66.00
11704;DHT22;5908;51.354;7.458;2023-05-13T12:48:08;23.30;58.50
11704;DHT22;5908;51.354;7.458;2023-05-13T12:50:35;23.50;58.50
11704;DHT22;5908;51.354;7.458;2023-05-13T12:53:02;23.80;57.50
11704;DHT22;5908;51.354;7.458;2023-05-13T12:55:30;24.00;57.20
11704;DHT22;5908;51.354;7.458;2023-05-13T12:58:00;24.10;57.30
11704;DHT22;5908;51.354;7.458;2023-05-13T13:00:28;24.00;58.80
11704;DHT22;5908;51.354;7.458;2023-05-13T13:02:55;23.80;58.80
11704;DHT22;5908;51.354;7.458;2023-05-13T13:05:23;23.50;59.70
11704;DHT22;5908;51.354;7.458;2023-05-13T13:07:50;23.10;61.20
11704;DHT22;5908;51.354;7.458;2023-05-13T13:10:17;22.90;61.70
11704;DHT22;5908;51.354;7.458;2023-05-13T13:12:44;22.60;63.10
11704;DHT22;5908;51.354;7.458;2023-05-13T13:15:12;22.50;63.40
11704;DHT22;5908;51.354;7.458;2023-05-13T13:17:39;22.50;64.20
11704;DHT22;5908;51.354;7.458;2023-05-13T13:20:06;22.60;64.10
11704;DHT22;5908;51.354;7.458;2023-05-13T13:22:33;22.70;64.20
11704;DHT22;5908;51.354;7.458;2023-05-13T13:25:02;22.70;63.50
11704;DHT22;5908;51.354;7.458;2023-05-13T13:27:29;22.80;62.90
11704;DHT22;5908;51.354;7.458;2023-05-13T13:29:56;22.90;63.00
11704;DHT22;5908;51.354;7.458;2023-05-13T13:32:24;22.90;63.00
11704;DHT22;5908;51.354;7.458;2023-05-13T13:34:51;22.90;62.70
11704;DHT22;5908;51.354;7.458;2023-05-13T13:37:18;22.90;63.20
11704;DHT22;5908;51.354;7.458;2023-05-13T13:39:44;23.00;62.90
11704;DHT22;5908;51.354;7.458;2023-05-13T13:42:11;23.10;61.50
11704;DHT22;5908;51.354;7.458;2023-05-13T13:44:38;23.10;61.10
11704;DHT22;5908;51.354;7.458;2023-05-13T13:47:05;23.30;61.40
11704;DHT22;5908;51.354;7.458;2023-05-13T13:49:33;23.40;61.00
11704;DHT22;5908;51.354;7.458;2023-05-13T13:52:00;23.50;60.70
11704;DHT22;5908;51.354;7.458;2023-05-13T13:54:26;23.90;60.00
11704;DHT22;5908;51.354;7.458;2023-05-13T13:56:53;24.30;60.40
11704;DHT22;5908;51.354;7.458;2023-05-13T13:59:20;24.70;57.90
11704;DHT22;5908;51.354;7.458;2023-05-13T14:01:47;25.10;58.00
11704;DHT22;5908;51.354;7.458;2023-05-13T14:04:15;25.50;55.40
11704;DHT22;5908;51.354;7.458;2023-05-13T14:06:45;25.50;56.20
11704;DHT22;5908;51.354;7.458;2023-05-13T14:09:12;25.50;56.50
11704;DHT22;5908;51.354;7.458;2023-05-13T14:11:39;25.30;57.00
11704;DHT22;5908;51.354;7.458;2023-05-13T14:14:06;25.00;58.50
11704;DHT22;5908;51.354;7.458;2023-05-13T14:16:34;24.60;59.50
11704;DHT22;5908;51.354;7.458;2023-05-13T14:19:01;23.90;61.40
11704;DHT22;5908;51.354;7.458;2023-05-13T14:21:28;23.40;62.30
11704;DHT22;5908;51.354;7.458;2023-05-13T14:23:56;22.50;64.30
11704;DHT22;5908;51.354;7.458;2023-05-13T14:26:23;21.40;70.00
11704;DHT22;5908;51.354;7.458;2023-05-13T14:28:50;20.30;79.50
11704;DHT22;5908;51.354;7.458;2023-05-13T14:31:17;18.20;99.90
11704;DHT22;5908;51.354;7.458;2023-05-13T14:33:44;16.40;99.90
11704;DHT22;5908;51.354;7.458;2023-05-13T14:36:10;16.00;99.90
11704;DHT22;5908;51.354;7.458;2023-05-13T14:38:40;15.90;99.90
11704;DHT22;5908;51.354;7.458;2023-05-13T14:41:08;16.00;99.90
11704;DHT22;5908;51.354;7.458;2023-05-13T14:43:35;16.40;99.90
11704;DHT22;5908;51.354;7.458;2023-05-13T14:46:02;16.70;99.90
11704;DHT22;5908;51.354;7.458;2023-05-13T14:48:29;16.90;99.90
11704;DHT22;5908;51.354;7.458;2023-05-13T14:50:56;17.00;99.90
11704;DHT22;5908;51.354;7.458;2023-05-13T14:53:22;17.20;99.90
11704;DHT22;5908;51.354;7.458;2023-05-13T14:55:49;17.60;99.90
11704;DHT22;5908;51.354;7.458;2023-05-13T14:58:17;17.90;99.90
11704;DHT22;5908;51.354;7.458;2023-05-13T15:00:44;18.00;99.90
11704;DHT22;5908;51.354;7.458;2023-05-13T15:03:11;18.00;99.90
11704;DHT22;5908;51.354;7.458;2023-05-13T15:05:38;18.20;99.90
11704;DHT22;5908;51.354;7.458;2023-05-13T15:08:04;18.30;99.90
11704;DHT22;5908;51.354;7.458;2023-05-13T15:10:31;18.50;99.90
11704;DHT22;5908;51.354;7.458;2023-05-13T15:12:58;18.80;99.90
11704;DHT22;5908;51.354;7.458;2023-05-13T15:17:53;19.70;99.90
11704;DHT22;5908;51.354;7.458;2023-05-13T15:20:20;20.40;99.90
11704;DHT22;5908;51.354;7.458;2023-05-13T15:22:47;21.00;99.90
11704;DHT22;5908;51.354;7.458;2023-05-13T15:25:14;21.50;99.90
11704;DHT22;5908;51.354;7.458;2023-05-13T15:27:41;21.90;99.90
11704;DHT22;5908;51.354;7.458;2023-05-13T15:30:08;22.30;99.90
11704;DHT22;5908;51.354;7.458;2023-05-13T15:32:36;22.20;99.90
11704;DHT22;5908;51.354;7.458;2023-05-13T15:35:04;21.70;95.40
11704;DHT22;5908;51.354;7.458;2023-05-13T15:37:31;21.20;95.40
11704;DHT22;5908;51.354;7.458;2023-05-13T15:39:58;20.10;99.90
11704;DHT22;5908;51.354;7.458;2023-05-13T15:42:24;18.90;99.90
11704;DHT22;5908;51.354;7.458;2023-05-13T15:44:52;18.60;99.90
11704;DHT22;5908;51.354;7.458;2023-05-13T15:47:18;18.30;99.90
11704;DHT22;5908;51.354;7.458;2023-05-13T15:49:47;18.60;99.90
11704;DHT22;5908;51.354;7.458;2023-05-13T15:52:15;18.80;99.90
11704;DHT22;5908;51.354;7.458;2023-05-13T15:54:42;18.60;99.90